sensor_id;sensor_type;location;lat;lon;timestamp;temperature;humidity
64689;DHT22;62504;46.070;14.492;2023-11-21T00:00:19;9.00;99.90
64689;DHT22;62504;46.070;14.492;2023-11-21T00:02:45;9.10;99.90
64689;DHT22;62504;46.070;14.492;2023-11-21T00:05:12;9.10;99.90
64689;DHT22;62504;46.070;14.492;2023-11-21T00:07:39;9.10;99.90
64689;DHT22;62504;46.070;14.492;2023-11-21T00:10:05;9.10;99.90
64689;DHT22;62504;46.070;14.492;2023-11-21T00:12:32;9.00;99.90
64689;DHT22;62504;46.070;14.492;2023-11-21T00:14:58;9.10;99.90
64689;DHT22;62504;46.070;14.492;2023-11-21T00:17:24;9.10;99.90
64689;DHT22;62504;46.070;14.492;2023-11-21T00:19:50;9.00;99.90
64689;DHT22;62504;46.070;14.492;2023-11-21T00:22:18;9.00;99.90
64689;DHT22;62504;46.070;14.492;2023-11-21T00:24:43;9.10;99.90
64689;DHT22;62504;46.070;14.492;2023-11-21T00:27:09;9.10;99.90
64689;DHT22;62504;46.070;14.492;2023-11-21T00:29:35;9.00;99.90
64689;DHT22;62504;46.070;14.492;2023-11-21T00:32:01;9.10;99.90
64689;DHT22;62504;46.070;14.492;2023-11-21T00:34:27;9.10;99.90
64689;DHT22;62504;46.070;14.492;2023-11-21T00:36:52;9.00;99.90
64689;DHT22;62504;46.070;14.492;2023-11-21T00:39:18;9.00;99.90
64689;DHT22;62504;46.070;14.492;2023-11-21T00:41:44;9.00;99.90
64689;DHT22;62504;46.070;14.492;2023-11-21T00:44:10;9.10;99.90
64689;DHT22;62504;46.070;14.492;2023-11-21T00:46:36;9.10;99.90
64689;DHT22;62504;46.070;14.492;2023-11-21T00:49:02;9.10;99.90
64689;DHT22;62504;46.070;14.492;2023-11-21T00:51:30;9.10;99.90
64689;DHT22;62504;46.070;14.492;2023-11-21T00:53:55;9.10;99.90
64689;DHT22;62504;46.070;14.492;2023-11-21T00:56:21;9.10;99.90
64689;DHT22;62504;46.070;14.492;2023-11-21T00:58:47;9.10;99.90
64689;DHT22;62504;46.070;14.492;2023-11-21T01:01:15;9.00;99.90
64689;DHT22;62504;46.070;14.492;2023-11-21T01:03:41;9.00;99.90
64689;DHT22;62504;46.070;14.492;2023-11-21T01:06:07;9.10;99.90
64689;DHT22;62504;46.070;14.492;2023-11-21T01:08:34;9.10;99.90
64689;DHT22;62504;46.070;14.492;2023-11-21T01:11:01;9.10;99.90
64689;DHT22;62504;46.070;14.492;2023-11-21T01:13:27;9.10;99.90
64689;DHT22;62504;46.070;14.492;2023-11-21T01:15:53;9.20;99.90
64689;DHT22;62504;46.070;14.492;2023-11-21T01:18:19;9.20;99.90
64689;DHT22;62504;46.070;14.492;2023-11-21T01:20:45;9.20;99.90
64689;DHT22;62504;46.070;14.492;2023-11-21T01:23:12;9.20;99.90
64689;DHT22;62504;46.070;14.492;2023-11-21T01:25:38;9.20;99.90
64689;DHT22;62504;46.070;14.492;2023-11-21T01:28:04;9.20;99.90
64689;DHT22;62504;46.070;14.492;2023-11-21T01:30:29;9.20;99.90
64689;DHT22;62504;46.070;14.492;2023-11-21T01:32:55;9.20;99.90
64689;DHT22;62504;46.070;14.492;2023-11-21T01:35:22;9.20;99.90
64689;DHT22;62504;46.070;14.492;2023-11-21T01:37:47;9.20;99.90
64689;DHT22;62504;46.070;14.492;2023-11-21T01:40:14;9.30;99.90
64689;DHT22;62504;46.070;14.492;2023-11-21T01:42:40;9.20;99.90
64689;DHT22;62504;46.070;14.492;2023-11-21T01:45:06;9.20;99.90
64689;DHT22;62504;46.070;14.492;2023-11-21T01:47:33;9.20;99.90
64689;DHT22;62504;46.070;14.492;2023-11-21T01:50:01;9.20;99.90
64689;DHT22;62504;46.070;14.492;2023-11-21T01:52:30;9.20;99.90
64689;DHT22;62504;46.070;14.492;2023-11-21T01:54:56;9.20;99.90
64689;DHT22;62504;46.070;14.492;2023-11-21T01:57:22;9.20;99.90
64689;DHT22;62504;46.070;14.492;2023-11-21T01:59:49;9.20;99.90
64689;DHT22;62504;46.070;14.492;2023-11-21T02:02:15;9.20;99.90
64689;DHT22;62504;46.070;14.492;2023-11-21T02:04:41;9.20;99.90
64689;DHT22;62504;46.070;14.492;2023-11-21T02:07:07;9.20;99.90
64689;DHT22;62504;46.070;14.492;2023-11-21T02:09:32;9.10;99.90
64689;DHT22;62504;46.070;14.492;2023-11-21T02:11:59;9.10;99.90
64689;DHT22;62504;46.070;14.492;2023-11-21T02:14:26;9.00;99.90
64689;DHT22;62504;46.070;14.492;2023-11-21T02:16:54;9.00;99.90
64689;DHT22;62504;46.070;14.492;2023-11-21T02:19:21;9.00;99.90
64689;DHT22;62504;46.070;14.492;2023-11-21T02:21:57;9.00;99.90
64689;DHT22;62504;46.070;14.492;2023-11-21T02:24:30;9.00;99.90
64689;DHT22;62504;46.070;14.492;2023-11-21T02:26:56;9.00;99.90
64689;DHT22;62504;46.070;14.492;2023-11-21T02:29:22;9.00;99.90
64689;DHT22;62504;46.070;14.492;2023-11-21T02:31:53;9.00;99.90
64689;DHT22;62504;46.070;14.492;2023-11-21T02:34:20;9.00;99.90
64689;DHT22;62504;46.070;14.492;2023-11-21T02:36:47;9.00;99.90
64689;DHT22;62504;46.070;14.492;2023-11-21T02:39:15;9.00;99.90
64689;DHT22;62504;46.070;14.492;2023-11-21T02:41:42;9.00;99.90
64689;DHT22;62504;46.070;14.492;2023-11-21T02:44:07;8.90;99.90
64689;DHT22;62504;46.070;14.492;2023-11-21T02:46:36;9.00;99.90
64689;DHT22;62504;46.070;14.492;2023-11-21T02:49:06;9.10;99.90
64689;DHT22;62504;46.070;14.492;2023-11-21T02:51:32;9.10;99.90
64689;DHT22;62504;46.070;14.492;2023-11-21T02:53:58;9.10;99.90
64689;DHT22;62504;46.070;14.492;2023-11-21T02:56:26;9.10;99.90
64689;DHT22;62504;46.070;14.492;2023-11-21T02:58:52;9.10;99.90
64689;DHT22;62504;46.070;14.492;2023-11-21T03:01:18;9.10;99.90
64689;DHT22;62504;46.070;14.492;2023-11-21T03:03:44;9.10;99.90
64689;DHT22;62504;46.070;14.492;2023-11-21T03:06:09;9.20;99.90
64689;DHT22;62504;46.070;14.492;2023-11-21T03:08:35;9.20;99.90
64689;DHT22;62504;46.070;14.492;2023-11-21T03:11:01;9.20;99.90
64689;DHT22;62504;46.070;14.492;2023-11-21T03:13:29;9.20;99.90
64689;DHT22;62504;46.070;14.492;2023-11-21T03:15:54;9.20;99.90
64689;DHT22;62504;46.070;14.492;2023-11-21T03:18:21;9.20;99.90
64689;DHT22;62504;46.070;14.492;2023-11-21T03:20:47;9.20;99.90
64689;DHT22;62504;46.070;14.492;2023-11-21T03:23:13;9.20;99.90
64689;DHT22;62504;46.070;14.492;2023-11-21T03:25:39;9.20;99.90
64689;DHT22;62504;46.070;14.492;2023-11-21T03:28:04;9.30;99.90
64689;DHT22;62504;46.070;14.492;2023-11-21T03:30:30;9.30;99.90
64689;DHT22;62504;46.070;14.492;2023-11-21T03:32:56;9.30;99.90
64689;DHT22;62504;46.070;14.492;2023-11-21T03:35:22;9.30;99.90
64689;DHT22;62504;46.070;14.492;2023-11-21T03:37:47;9.30;99.90
64689;DHT22;62504;46.070;14.492;2023-11-21T03:40:13;9.30;99.90
64689;DHT22;62504;46.070;14.492;2023-11-21T03:42:39;9.40;99.90
64689;DHT22;62504;46.070;14.492;2023-11-21T03:45:06;9.30;99.90
64689;DHT22;62504;46.070;14.492;2023-11-21T03:47:32;9.30;99.90
64689;DHT22;62504;46.070;14.492;2023-11-21T03:49:57;9.30;99.90
64689;DHT22;62504;46.070;14.492;2023-11-21T03:52:24;9.30;99.90
64689;DHT22;62504;46.070;14.492;2023-11-21T03:54:50;9.30;99.90
64689;DHT22;62504;46.070;14.492;2023-11-21T03:57:16;9.30;99.90
64689;DHT22;62504;46.070;14.492;2023-11-21T03:59:42;9.30;99.90
64689;DHT22;62504;46.070;14.492;2023-11-21T04:02:08;9.40;99.90
64689;DHT22;62504;46.070;14.492;2023-11-21T04:04:34;9.30;99.90
64689;DHT22;62504;46.070;14.492;2023-11-21T04:07:00;9.30;99.90
64689;DHT22;62504;46.070;14.492;2023-11-21T04:09:25;9.30;99.90
64689;DHT22;62504;46.070;14.492;2023-11-21T04:11:52;9.30;99.90
64689;DHT22;62504;46.070;14.492;2023-11-21T04:14:18;9.40;99.90
64689;DHT22;62504;46.070;14.492;2023-11-21T04:16:44;9.40;99.90
64689;DHT22;62504;46.070;14.492;2023-11-21T04:19:09;9.40;99.90
64689;DHT22;62504;46.070;14.492;2023-11-21T04:21:41;9.40;99.90
64689;DHT22;62504;46.070;14.492;2023-11-21T04:24:07;9.40;99.90
64689;DHT22;62504;46.070;14.492;2023-11-21T04:26:33;9.40;99.90
64689;DHT22;62504;46.070;14.492;2023-11-21T04:28:59;9.40;99.90
64689;DHT22;62504;46.070;14.492;2023-11-21T04:31:24;9.40;99.90
64689;DHT22;62504;46.070;14.492;2023-11-21T04:33:50;9.40;99.90
64689;DHT22;62504;46.070;14.492;2023-11-21T04:36:15;9.40;99.90
64689;DHT22;62504;46.070;14.492;2023-11-21T04:38:41;9.30;99.90
64689;DHT22;62504;46.070;14.492;2023-11-21T04:41:08;9.30;99.90
64689;DHT22;62504;46.070;14.492;2023-11-21T04:43:33;9.30;99.90
64689;DHT22;62504;46.070;14.492;2023-11-21T04:45:59;9.30;99.90
64689;DHT22;62504;46.070;14.492;2023-11-21T04:48:25;9.30;99.90
64689;DHT22;62504;46.070;14.492;2023-11-21T04:50:51;9.30;99.90
64689;DHT22;62504;46.070;14.492;2023-11-21T04:53:17;9.20;99.90
64689;DHT22;62504;46.070;14.492;2023-11-21T04:55:43;9.30;99.90
64689;DHT22;62504;46.070;14.492;2023-11-21T04:58:09;9.30;99.90
64689;DHT22;62504;46.070;14.492;2023-11-21T05:00:35;9.20;99.90
64689;DHT22;62504;46.070;14.492;2023-11-21T05:03:02;9.20;99.90
64689;DHT22;62504;46.070;14.492;2023-11-21T05:05:29;9.20;99.90
64689;DHT22;62504;46.070;14.492;2023-11-21T05:07:55;9.20;99.90
64689;DHT22;62504;46.070;14.492;2023-11-21T05:10:21;9.30;99.90
64689;DHT22;62504;46.070;14.492;2023-11-21T05:12:48;9.30;99.90
64689;DHT22;62504;46.070;14.492;2023-11-21T05:15:16;9.30;99.90
64689;DHT22;62504;46.070;14.492;2023-11-21T05:17:43;9.10;99.90
64689;DHT22;62504;46.070;14.492;2023-11-21T05:20:16;9.10;99.90
64689;DHT22;62504;46.070;14.492;2023-11-21T05:22:49;9.10;99.90
64689;DHT22;62504;46.070;14.492;2023-11-21T05:25:15;9.10;99.90
64689;DHT22;62504;46.070;14.492;2023-11-21T05:27:46;9.20;99.90
64689;DHT22;62504;46.070;14.492;2023-11-21T05:30:13;9.20;99.90
64689;DHT22;62504;46.070;14.492;2023-11-21T05:32:40;9.20;99.90
64689;DHT22;62504;46.070;14.492;2023-11-21T05:35:07;9.20;99.90
64689;DHT22;62504;46.070;14.492;2023-11-21T05:37:37;9.20;99.90
64689;DHT22;62504;46.070;14.492;2023-11-21T05:40:06;9.20;99.90
64689;DHT22;62504;46.070;14.492;2023-11-21T05:42:33;9.30;99.90
64689;DHT22;62504;46.070;14.492;2023-11-21T05:44:59;9.20;99.90
64689;DHT22;62504;46.070;14.492;2023-11-21T05:47:38;9.20;99.90
64689;DHT22;62504;46.070;14.492;2023-11-21T05:50:06;9.20;99.90
64689;DHT22;62504;46.070;14.492;2023-11-21T05:52:36;9.20;99.90
64689;DHT22;62504;46.070;14.492;2023-11-21T05:55:03;9.30;99.90
64689;DHT22;62504;46.070;14.492;2023-11-21T05:57:36;9.20;99.90
64689;DHT22;62504;46.070;14.492;2023-11-21T06:00:07;9.20;99.90
64689;DHT22;62504;46.070;14.492;2023-11-21T06:02:59;9.20;99.90
64689;DHT22;62504;46.070;14.492;2023-11-21T06:05:25;9.20;99.90
64689;DHT22;62504;46.070;14.492;2023-11-21T06:07:55;9.20;99.90
64689;DHT22;62504;46.070;14.492;2023-11-21T06:10:24;9.20;99.90
64689;DHT22;62504;46.070;14.492;2023-11-21T06:12:49;9.20;99.90
64689;DHT22;62504;46.070;14.492;2023-11-21T06:15:15;9.20;99.90
64689;DHT22;62504;46.070;14.492;2023-11-21T06:17:44;9.20;99.90
64689;DHT22;62504;46.070;14.492;2023-11-21T06:20:11;9.30;99.90
64689;DHT22;62504;46.070;14.492;2023-11-21T06:22:40;9.20;99.90
64689;DHT22;62504;46.070;14.492;2023-11-21T06:25:07;9.20;99.90
64689;DHT22;62504;46.070;14.492;2023-11-21T06:27:37;9.20;99.90
64689;DHT22;62504;46.070;14.492;2023-11-21T06:30:03;9.20;99.90
64689;DHT22;62504;46.070;14.492;2023-11-21T06:32:29;9.20;99.90
64689;DHT22;62504;46.070;14.492;2023-11-21T06:34:56;9.20;99.90
64689;DHT22;62504;46.070;14.492;2023-11-21T06:37:28;9.20;99.90
64689;DHT22;62504;46.070;14.492;2023-11-21T06:39:54;9.20;99.90
64689;DHT22;62504;46.070;14.492;2023-11-21T06:42:20;9.30;99.90
64689;DHT22;62504;46.070;14.492;2023-11-21T06:44:46;9.30;99.90
64689;DHT22;62504;46.070;14.492;2023-11-21T06:47:13;9.30;99.90
64689;DHT22;62504;46.070;14.492;2023-11-21T06:49:39;9.30;99.90
64689;DHT22;62504;46.070;14.492;2023-11-21T06:52:05;9.30;99.90
64689;DHT22;62504;46.070;14.492;2023-11-21T06:54:33;9.30;99.90
64689;DHT22;62504;46.070;14.492;2023-11-21T06:57:00;9.30;99.90
64689;DHT22;62504;46.070;14.492;2023-11-21T06:59:28;9.30;99.90
64689;DHT22;62504;46.070;14.492;2023-11-21T07:01:54;9.40;99.90
64689;DHT22;62504;46.070;14.492;2023-11-21T07:04:19;9.30;99.90
64689;DHT22;62504;46.070;14.492;2023-11-21T07:06:45;9.30;99.90
64689;DHT22;62504;46.070;14.492;2023-11-21T07:09:11;9.30;99.90
64689;DHT22;62504;46.070;14.492;2023-11-21T07:11:37;9.40;99.90
64689;DHT22;62504;46.070;14.492;2023-11-21T07:14:06;9.40;99.90
64689;DHT22;62504;46.070;14.492;2023-11-21T07:16:36;9.40;99.90
64689;DHT22;62504;46.070;14.492;2023-11-21T07:19:07;9.40;99.90
64689;DHT22;62504;46.070;14.492;2023-11-21T07:21:36;9.40;99.90
64689;DHT22;62504;46.070;14.492;2023-11-21T07:24:03;9.40;99.90
64689;DHT22;62504;46.070;14.492;2023-11-21T07:26:29;9.40;99.90
64689;DHT22;62504;46.070;14.492;2023-11-21T07:28:55;9.40;99.90
64689;DHT22;62504;46.070;14.492;2023-11-21T07:31:22;9.50;99.90
64689;DHT22;62504;46.070;14.492;2023-11-21T07:33:47;9.50;99.90
64689;DHT22;62504;46.070;14.492;2023-11-21T07:36:14;9.50;99.90
64689;DHT22;62504;46.070;14.492;2023-11-21T07:38:41;9.50;99.90
64689;DHT22;62504;46.070;14.492;2023-11-21T07:41:07;9.50;99.90
64689;DHT22;62504;46.070;14.492;2023-11-21T07:43:36;9.60;99.90
64689;DHT22;62504;46.070;14.492;2023-11-21T07:46:03;9.60;99.90
64689;DHT22;62504;46.070;14.492;2023-11-21T07:48:32;9.60;99.90
64689;DHT22;62504;46.070;14.492;2023-11-21T07:50:58;9.60;99.90
64689;DHT22;62504;46.070;14.492;2023-11-21T07:53:25;9.70;99.90
64689;DHT22;62504;46.070;14.492;2023-11-21T07:55:51;9.70;99.90
64689;DHT22;62504;46.070;14.492;2023-11-21T07:58:17;9.70;99.90
64689;DHT22;62504;46.070;14.492;2023-11-21T08:00:43;9.70;99.90
64689;DHT22;62504;46.070;14.492;2023-11-21T08:03:09;9.70;99.90
64689;DHT22;62504;46.070;14.492;2023-11-21T08:05:36;9.70;99.90
64689;DHT22;62504;46.070;14.492;2023-11-21T08:08:02;9.70;99.90
64689;DHT22;62504;46.070;14.492;2023-11-21T08:10:28;9.70;99.90
64689;DHT22;62504;46.070;14.492;2023-11-21T08:12:53;9.70;99.90
64689;DHT22;62504;46.070;14.492;2023-11-21T08:15:19;9.70;99.90
64689;DHT22;62504;46.070;14.492;2023-11-21T08:17:46;9.70;99.90
64689;DHT22;62504;46.070;14.492;2023-11-21T08:20:12;9.70;99.90
64689;DHT22;62504;46.070;14.492;2023-11-21T08:22:38;9.60;99.90
64689;DHT22;62504;46.070;14.492;2023-11-21T08:25:06;9.60;99.90
64689;DHT22;62504;46.070;14.492;2023-11-21T08:27:33;9.60;99.90
64689;DHT22;62504;46.070;14.492;2023-11-21T08:30:03;9.60;99.90
64689;DHT22;62504;46.070;14.492;2023-11-21T08:32:29;9.60;99.90
64689;DHT22;62504;46.070;14.492;2023-11-21T08:34:58;9.70;99.90
64689;DHT22;62504;46.070;14.492;2023-11-21T08:37:23;9.70;99.90
64689;DHT22;62504;46.070;14.492;2023-11-21T08:39:49;9.70;99.90
64689;DHT22;62504;46.070;14.492;2023-11-21T08:42:15;9.70;99.90
64689;DHT22;62504;46.070;14.492;2023-11-21T08:44:41;9.70;99.90
64689;DHT22;62504;46.070;14.492;2023-11-21T08:47:07;9.60;99.90
64689;DHT22;62504;46.070;14.492;2023-11-21T08:49:33;9.60;99.90
64689;DHT22;62504;46.070;14.492;2023-11-21T08:51:59;9.60;99.90
64689;DHT22;62504;46.070;14.492;2023-11-21T08:54:25;9.60;99.90
64689;DHT22;62504;46.070;14.492;2023-11-21T08:56:54;9.70;99.90
64689;DHT22;62504;46.070;14.492;2023-11-21T08:59:20;9.70;99.90
64689;DHT22;62504;46.070;14.492;2023-11-21T09:01:47;9.80;99.90
64689;DHT22;62504;46.070;14.492;2023-11-21T09:04:13;9.70;99.90
64689;DHT22;62504;46.070;14.492;2023-11-21T09:06:42;9.70;99.90
64689;DHT22;62504;46.070;14.492;2023-11-21T09:09:08;9.80;99.90
64689;DHT22;62504;46.070;14.492;2023-11-21T09:11:35;9.80;99.90
64689;DHT22;62504;46.070;14.492;2023-11-21T09:14:01;9.70;99.90
64689;DHT22;62504;46.070;14.492;2023-11-21T09:16:28;9.80;99.90
64689;DHT22;62504;46.070;14.492;2023-11-21T09:18:54;9.80;99.90
64689;DHT22;62504;46.070;14.492;2023-11-21T09:21:20;9.80;99.90
64689;DHT22;62504;46.070;14.492;2023-11-21T09:23:46;9.80;99.90
64689;DHT22;62504;46.070;14.492;2023-11-21T09:26:12;9.80;99.90
64689;DHT22;62504;46.070;14.492;2023-11-21T09:28:38;9.90;99.90
64689;DHT22;62504;46.070;14.492;2023-11-21T09:31:05;10.00;99.90
64689;DHT22;62504;46.070;14.492;2023-11-21T09:33:30;10.00;99.90
64689;DHT22;62504;46.070;14.492;2023-11-21T09:35:57;10.00;99.90
64689;DHT22;62504;46.070;14.492;2023-11-21T09:38:23;10.10;99.90
64689;DHT22;62504;46.070;14.492;2023-11-21T09:40:49;10.10;99.90
64689;DHT22;62504;46.070;14.492;2023-11-21T09:43:18;10.20;99.90
64689;DHT22;62504;46.070;14.492;2023-11-21T09:45:48;10.20;99.90
64689;DHT22;62504;46.070;14.492;2023-11-21T09:48:20;10.20;99.90
64689;DHT22;62504;46.070;14.492;2023-11-21T09:50:47;10.20;99.90
64689;DHT22;62504;46.070;14.492;2023-11-21T09:55:43;10.30;99.90
64689;DHT22;62504;46.070;14.492;2023-11-21T09:58:09;10.30;99.90
64689;DHT22;62504;46.070;14.492;2023-11-21T10:00:41;10.30;99.90
64689;DHT22;62504;46.070;14.492;2023-11-21T10:03:07;10.40;99.90
64689;DHT22;62504;46.070;14.492;2023-11-21T10:05:34;10.40;99.90
64689;DHT22;62504;46.070;14.492;2023-11-21T10:08:00;10.40;99.90
64689;DHT22;62504;46.070;14.492;2023-11-21T10:10:27;10.30;99.90
64689;DHT22;62504;46.070;14.492;2023-11-21T10:13:01;10.30;99.90
64689;DHT22;62504;46.070;14.492;2023-11-21T10:15:29;10.30;99.90
64689;DHT22;62504;46.070;14.492;2023-11-21T10:17:56;10.20;99.90
64689;DHT22;62504;46.070;14.492;2023-11-21T10:20:23;10.10;99.90
64689;DHT22;62504;46.070;14.492;2023-11-21T10:22:50;10.10;99.90
64689;DHT22;62504;46.070;14.492;2023-11-21T10:25:15;10.20;99.90
64689;DHT22;62504;46.070;14.492;2023-11-21T10:27:42;10.20;99.90
64689;DHT22;62504;46.070;14.492;2023-11-21T10:30:09;10.10;99.90
64689;DHT22;62504;46.070;14.492;2023-11-21T10:32:42;10.10;99.90
64689;DHT22;62504;46.070;14.492;2023-11-21T10:35:09;10.10;99.90
64689;DHT22;62504;46.070;14.492;2023-11-21T10:37:40;10.10;99.90
64689;DHT22;62504;46.070;14.492;2023-11-21T10:40:10;10.20;99.90
64689;DHT22;62504;46.070;14.492;2023-11-21T10:42:40;10.10;99.90
64689;DHT22;62504;46.070;14.492;2023-11-21T10:45:06;10.10;99.90
64689;DHT22;62504;46.070;14.492;2023-11-21T10:47:42;10.10;99.90
64689;DHT22;62504;46.070;14.492;2023-11-21T10:50:08;10.20;99.90
64689;DHT22;62504;46.070;14.492;2023-11-21T10:52:42;10.20;99.90
64689;DHT22;62504;46.070;14.492;2023-11-21T10:55:22;10.20;99.90
64689;DHT22;62504;46.070;14.492;2023-11-21T10:57:52;10.20;99.90
64689;DHT22;62504;46.070;14.492;2023-11-21T11:00:18;10.20;99.90
64689;DHT22;62504;46.070;14.492;2023-11-21T11:02:52;10.20;99.90
64689;DHT22;62504;46.070;14.492;2023-11-21T11:05:21;10.20;99.90
64689;DHT22;62504;46.070;14.492;2023-11-21T11:07:48;10.20;99.90
64689;DHT22;62504;46.070;14.492;2023-11-21T11:10:18;10.30;99.90
64689;DHT22;62504;46.070;14.492;2023-11-21T11:12:47;10.30;99.90
64689;DHT22;62504;46.070;14.492;2023-11-21T11:15:13;10.30;99.90
64689;DHT22;62504;46.070;14.492;2023-11-21T11:17:40;10.30;99.90
64689;DHT22;62504;46.070;14.492;2023-11-21T11:20:09;10.30;99.90
64689;DHT22;62504;46.070;14.492;2023-11-21T11:28:07;10.30;99.90
64689;DHT22;62504;46.070;14.492;2023-11-21T11:33:43;10.40;99.90
64689;DHT22;62504;46.070;14.492;2023-11-21T11:38:52;10.40;99.90
64689;DHT22;62504;46.070;14.492;2023-11-21T11:41:26;10.40;99.90
64689;DHT22;62504;46.070;14.492;2023-11-21T11:43:53;10.40;99.90
64689;DHT22;62504;46.070;14.492;2023-11-21T11:46:19;10.40;99.90
64689;DHT22;62504;46.070;14.492;2023-11-21T11:48:48;10.40;99.90
64689;DHT22;62504;46.070;14.492;2023-11-21T11:51:15;10.40;99.90
64689;DHT22;62504;46.070;14.492;2023-11-21T11:53:43;10.40;99.90
64689;DHT22;62504;46.070;14.492;2023-11-21T11:56:29;10.40;99.90
64689;DHT22;62504;46.070;14.492;2023-11-21T11:59:02;10.40;99.90
64689;DHT22;62504;46.070;14.492;2023-11-21T12:01:29;10.40;99.90
64689;DHT22;62504;46.070;14.492;2023-11-21T12:06:57;10.40;99.90
64689;DHT22;62504;46.070;14.492;2023-11-21T12:09:25;10.40;99.90
64689;DHT22;62504;46.070;14.492;2023-11-21T12:11:52;10.40;99.90
64689;DHT22;62504;46.070;14.492;2023-11-21T12:14:18;10.40;99.90
64689;DHT22;62504;46.070;14.492;2023-11-21T12:16:44;10.50;99.90
64689;DHT22;62504;46.070;14.492;2023-11-21T12:19:13;10.50;99.90
64689;DHT22;62504;46.070;14.492;2023-11-21T12:21:39;10.60;99.90
64689;DHT22;62504;46.070;14.492;2023-11-21T12:24:09;10.60;99.90
64689;DHT22;62504;46.070;14.492;2023-11-21T12:26:35;10.50;99.90
64689;DHT22;62504;46.070;14.492;2023-11-21T12:29:04;10.50;99.90
64689;DHT22;62504;46.070;14.492;2023-11-21T12:31:33;10.60;99.90
64689;DHT22;62504;46.070;14.492;2023-11-21T12:34:00;10.60;99.90
64689;DHT22;62504;46.070;14.492;2023-11-21T12:36:26;10.70;99.90
64689;DHT22;62504;46.070;14.492;2023-11-21T12:38:51;10.70;99.90
64689;DHT22;62504;46.070;14.492;2023-11-21T12:41:17;10.70;99.90
64689;DHT22;62504;46.070;14.492;2023-11-21T12:43:43;10.70;99.90
64689;DHT22;62504;46.070;14.492;2023-11-21T12:46:10;10.70;99.90
64689;DHT22;62504;46.070;14.492;2023-11-21T12:48:40;10.70;99.90
64689;DHT22;62504;46.070;14.492;2023-11-21T12:51:10;10.80;99.90
64689;DHT22;62504;46.070;14.492;2023-11-21T12:53:37;10.80;99.90
64689;DHT22;62504;46.070;14.492;2023-11-21T12:56:07;10.80;99.90
64689;DHT22;62504;46.070;14.492;2023-11-21T12:58:35;10.80;99.90
64689;DHT22;62504;46.070;14.492;2023-11-21T13:01:01;10.80;99.90
64689;DHT22;62504;46.070;14.492;2023-11-21T13:03:29;10.80;99.90
64689;DHT22;62504;46.070;14.492;2023-11-21T13:05:56;10.80;99.90
64689;DHT22;62504;46.070;14.492;2023-11-21T13:08:25;10.80;99.90
64689;DHT22;62504;46.070;14.492;2023-11-21T13:10:55;10.80;99.90
64689;DHT22;62504;46.070;14.492;2023-11-21T13:13:22;10.80;99.90
64689;DHT22;62504;46.070;14.492;2023-11-21T13:16:02;10.80;99.90
64689;DHT22;62504;46.070;14.492;2023-11-21T13:18:31;10.70;99.90
64689;DHT22;62504;46.070;14.492;2023-11-21T13:20:59;10.70;99.90
64689;DHT22;62504;46.070;14.492;2023-11-21T13:23:26;10.80;99.90
64689;DHT22;62504;46.070;14.492;2023-11-21T13:25:54;10.80;99.90
64689;DHT22;62504;46.070;14.492;2023-11-21T13:28:20;10.90;99.90
64689;DHT22;62504;46.070;14.492;2023-11-21T13:30:47;11.00;99.90
64689;DHT22;62504;46.070;14.492;2023-11-21T13:33:14;11.00;99.90
64689;DHT22;62504;46.070;14.492;2023-11-21T13:35:44;11.00;99.90
64689;DHT22;62504;46.070;14.492;2023-11-21T13:38:15;10.90;99.90
64689;DHT22;62504;46.070;14.492;2023-11-21T13:40:48;11.00;99.90
64689;DHT22;62504;46.070;14.492;2023-11-21T13:43:20;10.90;99.90
64689;DHT22;62504;46.070;14.492;2023-11-21T13:45:48;10.80;99.90
64689;DHT22;62504;46.070;14.492;2023-11-21T13:48:25;10.80;99.90
64689;DHT22;62504;46.070;14.492;2023-11-21T13:50:57;10.90;99.90
64689;DHT22;62504;46.070;14.492;2023-11-21T13:53:36;10.90;99.90
64689;DHT22;62504;46.070;14.492;2023-11-21T13:56:03;11.00;99.90
64689;DHT22;62504;46.070;14.492;2023-11-21T13:58:29;11.00;99.90
64689;DHT22;62504;46.070;14.492;2023-11-21T14:01:10;11.00;99.90
64689;DHT22;62504;46.070;14.492;2023-11-21T14:04:00;11.00;99.90
64689;DHT22;62504;46.070;14.492;2023-11-21T14:06:42;11.00;99.90
64689;DHT22;62504;46.070;14.492;2023-11-21T14:09:22;10.90;99.90
64689;DHT22;62504;46.070;14.492;2023-11-21T14:11:57;10.90;99.90
64689;DHT22;62504;46.070;14.492;2023-11-21T14:14:27;10.90;99.90
64689;DHT22;62504;46.070;14.492;2023-11-21T14:16:53;10.80;99.90
64689;DHT22;62504;46.070;14.492;2023-11-21T14:19:21;10.80;99.90
64689;DHT22;62504;46.070;14.492;2023-11-21T14:21:47;10.80;99.90
64689;DHT22;62504;46.070;14.492;2023-11-21T14:24:16;10.80;99.90
64689;DHT22;62504;46.070;14.492;2023-11-21T14:26:44;10.80;99.90
64689;DHT22;62504;46.070;14.492;2023-11-21T14:29:15;10.80;99.90
64689;DHT22;62504;46.070;14.492;2023-11-21T14:31:43;10.80;99.90
64689;DHT22;62504;46.070;14.492;2023-11-21T14:34:09;10.80;99.90
64689;DHT22;62504;46.070;14.492;2023-11-21T14:36:37;10.80;99.90
64689;DHT22;62504;46.070;14.492;2023-11-21T14:39:04;10.80;99.90
64689;DHT22;62504;46.070;14.492;2023-11-21T14:41:35;10.80;99.90
64689;DHT22;62504;46.070;14.492;2023-11-21T14:44:02;10.80;99.90
64689;DHT22;62504;46.070;14.492;2023-11-21T14:46:30;10.80;99.90
64689;DHT22;62504;46.070;14.492;2023-11-21T14:48:56;10.90;99.90
64689;DHT22;62504;46.070;14.492;2023-11-21T14:51:28;10.70;99.90
64689;DHT22;62504;46.070;14.492;2023-11-21T14:53:58;10.60;99.90
64689;DHT22;62504;46.070;14.492;2023-11-21T14:56:35;10.60;99.90
64689;DHT22;62504;46.070;14.492;2023-11-21T14:59:03;10.60;99.90
64689;DHT22;62504;46.070;14.492;2023-11-21T15:01:38;10.60;99.90
64689;DHT22;62504;46.070;14.492;2023-11-21T15:04:21;10.50;99.90
64689;DHT22;62504;46.070;14.492;2023-11-21T15:07:04;10.50;99.90
64689;DHT22;62504;46.070;14.492;2023-11-21T15:09:29;10.50;99.90
64689;DHT22;62504;46.070;14.492;2023-11-21T15:11:59;10.50;99.90
64689;DHT22;62504;46.070;14.492;2023-11-21T15:14:38;10.50;99.90
64689;DHT22;62504;46.070;14.492;2023-11-21T15:17:03;10.50;99.90
64689;DHT22;62504;46.070;14.492;2023-11-21T15:19:31;10.50;99.90
64689;DHT22;62504;46.070;14.492;2023-11-21T15:21:57;10.50;99.90
64689;DHT22;62504;46.070;14.492;2023-11-21T15:24:23;10.50;99.90
64689;DHT22;62504;46.070;14.492;2023-11-21T15:26:50;10.50;99.90
64689;DHT22;62504;46.070;14.492;2023-11-21T15:29:16;10.40;99.90
64689;DHT22;62504;46.070;14.492;2023-11-21T15:31:42;10.40;99.90
64689;DHT22;62504;46.070;14.492;2023-11-21T15:34:14;10.40;99.90
64689;DHT22;62504;46.070;14.492;2023-11-21T15:36:40;10.40;99.90
64689;DHT22;62504;46.070;14.492;2023-11-21T15:39:05;10.40;99.90
64689;DHT22;62504;46.070;14.492;2023-11-21T15:41:32;10.40;99.90
64689;DHT22;62504;46.070;14.492;2023-11-21T15:43:58;10.40;99.90